Dan Fighter — OVUE2 — position and weather

sailwx.info

Track history (hours):
 
Tides and Currents Weather Stations Pressure Air Temp Water Temp Dewpoint Dewpoint Depression Visibility Wind Speed Wind Dir Waves Ship Positions

Dan Fighter

Last reported at 2016-Sep-29 19:32 UTC. Time now 2016-Sep-29 20:27 UTC.
Position N 58°27' E 005°60'.

Length 64 m; draft 3.1 m.

Type: Cargo ship. MMSI: 220386978.

Date/timePositionNaut miles runAvg speedWind from/ knotsBaromVisibWave heightAir tempDewpointWater temp
2016-Sep-29 19:32N 58°27' E 005°60'0 0.0
2016-Sep-29 16:32N 58°27' E 005°60'0 0.0
2016-Sep-29 15:32N 58°27' E 005°60'0 0.0
2016-Sep-29 14:32N 58°27' E 005°60'0 0.0
2016-Sep-29 13:32N 58°27' E 005°60'0 0.0
2016-Sep-29 08:32N 58°27' E 005°60'0 0.0
2016-Sep-29 07:32N 58°27' E 005°60'0 0.0
2016-Sep-29 00:32N 58°27' E 005°60'0 0.0
2016-Sep-28 21:32N 58°27' E 005°60'0 0.0
2016-Sep-28 19:32N 58°27' E 005°60'0 0.0
2016-Sep-28 16:32N 58°27' E 005°60'0 0.0
2016-Sep-28 15:32N 58°27' E 005°60'0 0.0
2016-Sep-28 12:32N 58°27' E 005°60'0 0.0
2016-Sep-28 08:32N 58°27' E 005°60'0 0.0
2016-Sep-28 03:32N 58°27' E 005°60'0 0.0
2016-Sep-28 02:32N 58°27' E 005°60'0 0.0
2016-Sep-28 01:32N 58°27' E 005°60'0 0.0
2016-Sep-27 23:32N 58°27' E 005°60'0 0.0
2016-Sep-27 19:32N 58°27' E 005°60'0 0.0
2016-Sep-27 14:32N 58°27' E 005°60'0 0.0
2016-Sep-27 13:32N 58°27' E 005°60'0 0.0
2016-Sep-27 10:32N 58°27' E 005°60'52 5.2
2016-Sep-27 00:32N 57°54' E 007°16'76 8.3
2016-Sep-26 15:26N 57°49' E 009°38'16 8.6
2016-Sep-26 13:33N 57°48' E 010°08'16 8.0
2016-Sep-26 11:33N 57°46' E 010°38'5 0.3
2016-Sep-25 15:07N 57°41' E 010°34'6 0.8
2016-Sep-25 07:31N 57°45' E 010°43'423 8.1
2016-Sep-23 03:32N 53°41' E 000°28'9 9.1
2016-Sep-23 02:33N 53°35' E 000°18'9 8.7
2016-Sep-23 01:33N 53°35' E 000°03'1111.2
2016-Sep-23 00:33N 53°41' W 000°13'9 9.3
2016-Sep-22 23:33N 53°42' W 000°28'  
Track history (hours):
 
Tides and Currents Weather Stations Pressure Air Temp Water Temp Dewpoint Dewpoint Depression Visibility Wind Speed Wind Dir Waves Ship Positions

Dan Fighter

Last reported at 2016-Sep-29 19:32 UTC. Time now 2016-Sep-29 20:27 UTC.
Position N 58°27' E 005°60'.

Length 64 m; draft 3.1 m.

Type: Cargo ship. MMSI: 220386978.

Date/timePositionNaut miles runAvg speedWind from/ knotsBaromVisibWave heightAir tempDewpointWater temp
2016-Sep-29 19:32N 58°27' E 005°60'0 0.0
2016-Sep-29 16:32N 58°27' E 005°60'0 0.0
2016-Sep-29 15:32N 58°27' E 005°60'0 0.0
2016-Sep-29 14:32N 58°27' E 005°60'0 0.0
2016-Sep-29 13:32N 58°27' E 005°60'0 0.0
2016-Sep-29 08:32N 58°27' E 005°60'0 0.0
2016-Sep-29 07:32N 58°27' E 005°60'0 0.0
2016-Sep-29 00:32N 58°27' E 005°60'0 0.0
2016-Sep-28 21:32N 58°27' E 005°60'0 0.0
2016-Sep-28 19:32N 58°27' E 005°60'0 0.0
2016-Sep-28 16:32N 58°27' E 005°60'0 0.0
2016-Sep-28 15:32N 58°27' E 005°60'0 0.0
2016-Sep-28 12:32N 58°27' E 005°60'0 0.0
2016-Sep-28 08:32N 58°27' E 005°60'0 0.0
2016-Sep-28 03:32N 58°27' E 005°60'0 0.0
2016-Sep-28 02:32N 58°27' E 005°60'0 0.0
2016-Sep-28 01:32N 58°27' E 005°60'0 0.0
2016-Sep-27 23:32N 58°27' E 005°60'0 0.0
2016-Sep-27 19:32N 58°27' E 005°60'0 0.0
2016-Sep-27 14:32N 58°27' E 005°60'0 0.0
2016-Sep-27 13:32N 58°27' E 005°60'0 0.0
2016-Sep-27 10:32N 58°27' E 005°60'52 5.2
2016-Sep-27 00:32N 57°54' E 007°16'76 8.3
2016-Sep-26 15:26N 57°49' E 009°38'16 8.6
2016-Sep-26 13:33N 57°48' E 010°08'16 8.0
2016-Sep-26 11:33N 57°46' E 010°38'5 0.3
2016-Sep-25 15:07N 57°41' E 010°34'6 0.8
2016-Sep-25 07:31N 57°45' E 010°43'423 8.1
2016-Sep-23 03:32N 53°41' E 000°28'9 9.1
2016-Sep-23 02:33N 53°35' E 000°18'9 8.7
2016-Sep-23 01:33N 53°35' E 000°03'1111.2
2016-Sep-23 00:33N 53°41' W 000°13'9 9.3
2016-Sep-22 23:33N 53°42' W 000°28'  

Dump ship's entire track history